ELLX/LUX METAR and TAF weather

Enter ICAO airport designator
Station Type Date Time Source
ELLX METAR 2018/10/19 15:20 UTC NOAA

ELLX 191520Z 04008KT CAVOK 17/10 Q1022 NOSIG


Station Type Date Time Source
ELLX Decoded METAR 2018/10/19 15:20 UTC NOAA

Luxembourg / Luxembourg, Luxembourg (ELLX) 49-37N 006-13E 379M
Oct 19, 2018 - 11:20 AM EDT / 2018.10.19 1520 UTC
Wind: from the NE (040 degrees) at 9 MPH (8 KT):0
Visibility: greater than 7 mile(s):0
Temperature: 62 F (17 C)
Dew Point: 50 F (10 C)
Relative Humidity: 63%
Pressure (altimeter): 30.18 in. Hg (1022 hPa)
ob: ELLX 191520Z 04008KT CAVOK 17/10 Q1022 NOSIG
cycle: 15

Station Type Date Time Source
ELLX TAF 2018/10/19 12:27 UTC NOAA

TAF ELLX 191100Z 1912/2018 04009KT CAVOK PROB40
TEMPO 2000/2008 2000 BR


Example: see airport list